Columbus, Ohio
Traffic Map
Current Weather Conditions
Columbus, Ohio
Overcast
Overcast
-2°
Feels Like: -2°
Wind Chill: -2° Ceiling: 1700
Heat Index: -2° Visibility: 9mi
Dew Point: -6° Wind: 0mph
Humidity: 75% Direction: ° ()
Pressure: 30.28in Gusts: 0mph
Raw Report DataKCMH 200851Z 00000KT 9SM OVC017 M02/M06 A3028 RMK AO2 SLP261 T10171056 50007
Traffic Incident Summary
Active as of:
Severity:
Category:
InformationThere was an issue retrieving the traffic information for this location. Please try a different location or try again shortly.
Advertisements
Track Severe Weather on mobile